Latest Weather Observations for Darwin Harbour

IDD60901

Issued at 12:51 pm CST Thursday 27 April 2017 (issued every 10 minutes, with the page automatically refreshed every 10 minutes)

About weather observations | Map of Darwin area stations | Latest observations for Darwin area | Other Formats
Station Details ID: 014072 Name: DARWIN NTC AWS Lat: -12.47 Lon: 130.85 Height: 0.0 m
Data from the previous 72 hours. | See also: Recent months for locations in Northern Territory
Date/Time
CST
Temp
°C
App
Temp
°C
Dew
Point
°C
Rel
Hum
%
Delta-T
°C
Wind Press
QNH
hPa
Press
MSL
hPa
Rain since
9am
mm
Dir  Spd
km/h
Gust
km/h
Spd
kts
Gust
kts
27/12:30pm - - - - - SE 28 33 15 18 1009.7 1009.6 -
27/12:00pm - - - - - ESE 24 30 13 16 1010.5 1010.4 -
27/11:30am - - - - - SE 26 32 14 17 1010.5 1010.4 -
27/11:00am - - - - - SE 24 30 13 16 1011.1 1011.0 -
27/10:30am - - - - - SSE 20 30 11 16 1011.2 1011.1 -
27/10:00am - - - - - SE 24 32 13 17 1011.5 1011.4 -
27/09:30am - - - - - SE 32 41 17 22 1010.9 1010.8 -
27/09:00am - - - - - ESE 30 39 16 21 1011.0 1010.9 -
27/08:30am - - - - - SE 32 41 17 22 1010.2 1010.1 -
27/08:00am - - - - - ESE 33 41 18 22 1009.9 1009.8 -
27/07:30am - - - - - ESE 32 43 17 23 1009.7 1009.6 -
27/07:00am - - - - - ESE 33 41 18 22 1009.2 1009.1 -
27/06:30am - - - - - ESE 33 41 18 22 1008.9 1008.8 -
27/06:00am - - - - - ESE 28 35 15 19 1008.7 1008.6 -
27/05:30am - - - - - ESE 22 28 12 15 1008.5 1008.4 -
27/05:00am - - - - - ESE 19 26 10 14 1008.5 1008.4 -
27/04:30am - - - - - ESE 19 26 10 14 1008.7 1008.6 -
27/04:00am - - - - - ESE 26 33 14 18 1008.4 1008.3 -
27/03:30am - - - - - E 17 20 9 11 1009.0 1008.9 -
27/03:00am - - - - - E 17 24 9 13 1009.0 1008.9 -
27/02:30am - - - - - ENE 9 15 5 8 1009.0 1008.9 -
27/02:00am - - - - - ENE 9 17 5 9 1008.9 1008.8 -
27/01:30am - - - - - E 19 24 10 13 1009.2 1009.1 -
27/01:00am - - - - - E 22 28 12 15 1009.2 1009.1 -
27/12:30am - - - - - E 24 30 13 16 1009.3 1009.2 -
27/12:00am - - - - - E 20 26 11 14 1009.5 1009.4 -
 
Date/Time
CST
Temp
°C
App
Temp
°C
Dew
Point
°C
Rel
Hum
%
Delta-T
°C
Wind Press
QNH
hPa
Press
MSL
hPa
Rain since
9am
mm
Dir  Spd
km/h
Gust
km/h
Spd
kts
Gust
kts
26/11:30pm - - - - - E 19 24 10 13 1009.5 1009.4 -
26/11:00pm - - - - - E 17 24 9 13 1009.4 1009.3 -
26/10:30pm - - - - - E 17 22 9 12 1009.4 1009.3 -
26/10:00pm - - - - - E 17 22 9 12 1009.3 1009.2 -
26/09:30pm - - - - - E 19 22 10 12 1009.2 1009.1 -
26/09:00pm - - - - - E 17 22 9 12 1009.1 1009.0 -
26/08:30pm - - - - - E 15 20 8 11 1009.0 1008.9 -
26/08:00pm - - - - - ENE 9 19 5 10 1009.1 1009.0 -
26/07:30pm - - - - - ENE 9 15 5 8 1009.1 1009.0 -
26/07:00pm - - - - - ENE 6 13 3 7 1009.0 1008.9 -
26/06:30pm - - - - - ENE 6 15 3 8 1008.7 1008.6 -
26/06:00pm - - - - - ENE 9 15 5 8 1008.3 1008.2 -
26/05:30pm - - - - - E 13 17 7 9 1007.8 1007.7 -
26/05:00pm - - - - - E 13 17 7 9 1007.4 1007.3 -
26/04:30pm - - - - - ESE 17 22 9 12 1007.1 1007.0 -
26/04:00pm - - - - - E 15 19 8 10 1007.1 1007.0 -
26/03:30pm - - - - - ENE 15 24 8 13 1007.2 1007.1 -
26/03:00pm - - - - - E 19 22 10 12 1007.4 1007.3 -
26/02:30pm - - - - - E 19 22 10 12 1007.3 1007.2 -
26/02:00pm - - - - - E 24 30 13 16 1007.8 1007.7 -
26/01:30pm - - - - - E 19 22 10 12 1008.4 1008.3 -
26/01:00pm - - - - - E 22 28 12 15 1008.8 1008.7 -
26/12:30pm - - - - - E 20 24 11 13 1009.3 1009.2 -
26/12:00pm - - - - - E 20 28 11 15 1009.8 1009.7 -
26/11:30am - - - - - ESE 19 26 10 14 1010.1 1010.0 -
26/11:00am - - - - - ESE 24 32 13 17 1010.6 1010.5 -
26/10:30am - - - - - ESE 22 26 12 14 1010.8 1010.7 -
26/10:00am - - - - - E 20 24 11 13 1010.9 1010.8 -
26/09:30am - - - - - ESE 19 24 10 13 1010.7 1010.6 -
26/09:00am - - - - - ESE 17 24 9 13 1010.5 1010.4 -
26/08:30am - - - - - SE 15 19 8 10 1010.1 1010.0 -
26/08:00am - - - - - SE 17 22 9 12 1009.7 1009.6 -
26/07:30am - - - - - ESE 19 24 10 13 1009.4 1009.3 -
26/07:00am - - - - - ESE 20 24 11 13 1009.4 1009.3 -
26/06:30am - - - - - SE 17 22 9 12 1008.9 1008.8 -
26/06:00am - - - - - SE 17 22 9 12 1009.0 1008.9 -
26/05:30am - - - - - SE 13 20 7 11 1009.0 1008.9 -
26/05:00am - - - - - ESE 13 17 7 9 1008.9 1008.8 -
26/04:30am - - - - - SSE 9 13 5 7 1008.6 1008.5 -
26/04:00am - - - - - SSE 11 15 6 8 1008.6 1008.5 -
26/03:30am - - - - - S 11 13 6 7 1008.6 1008.5 -
26/03:00am - - - - - SW 7 13 4 7 1008.6 1008.5 -
26/02:30am - - - - - SW 9 13 5 7 1008.9 1008.8 -
26/02:00am - - - - - SW 11 15 6 8 1009.0 1008.9 -
26/01:30am - - - - - SW 13 17 7 9 1009.3 1009.2 -
26/01:00am - - - - - SW 13 15 7 8 1009.7 1009.6 -
26/12:30am - - - - - SW 13 15 7 8 1010.1 1010.0 -
26/12:00am - - - - - SW 7 9 4 5 1010.4 1010.3 -
 
Date/Time
CST
Temp
°C
App
Temp
°C
Dew
Point
°C
Rel
Hum
%
Delta-T
°C
Wind Press
QNH
hPa
Press
MSL
hPa
Rain since
9am
mm
Dir  Spd
km/h
Gust
km/h
Spd
kts
Gust
kts
25/11:30pm - - - - - SSW 7 11 4 6 1010.6 1010.5 -
25/11:00pm - - - - - SW 2 4 1 2 1010.8 1010.7 -
25/10:30pm - - - - - CALM 0 2 0 1 1010.9 1010.8 -
25/10:00pm - - - - - NNW 2 2 1 1 1010.9 1010.8 -
25/09:30pm - - - - - CALM 0 2 0 1 1010.7 1010.6 -
25/09:00pm - - - - - ENE 4 7 2 4 1010.4 1010.3 -
25/08:30pm - - - - - NE 4 9 2 5 1010.1 1010.0 -
25/08:00pm - - - - - ENE 6 11 3 6 1009.6 1009.5 -
25/07:30pm - - - - - ENE 6 15 3 8 1009.2 1009.1 -
25/07:00pm - - - - - NNE 6 9 3 5 1009.0 1008.9 -
25/06:30pm - - - - - N 6 11 3 6 1008.8 1008.7 -
25/06:00pm - - - - - NNW 7 15 4 8 1008.5 1008.4 -
25/05:30pm - - - - - NNW 9 19 5 10 1008.3 1008.2 -
25/05:00pm - - - - - ENE 13 20 7 11 1007.9 1007.8 -
25/04:30pm - - - - - E 17 20 9 11 1007.6 1007.5 -
25/04:00pm - - - - - ESE 11 19 6 10 1007.4 1007.3 -
25/03:30pm - - - - - ESE 11 15 6 8 1007.5 1007.4 -
25/03:00pm - - - - - ESE 20 26 11 14 1007.8 1007.7 -
25/02:30pm - - - - - E 22 33 12 18 1008.0 1007.9 -
25/02:00pm - - - - - SE 15 32 8 17 1008.5 1008.4 -
25/01:30pm - - - - - S 2 4 1 2 1009.0 1008.9 -
25/01:00pm - - - - - SW 6 9 3 5 1009.3 1009.2 -
25/12:30pm - - - - - SE 6 7 3 4 1009.8 1009.7 -
25/12:00pm - - - - - SSE 7 13 4 7 1010.3 1010.2 -
25/11:30am - - - - - SE 7 11 4 6 1011.0 1010.9 -
25/11:00am - - - - - SE 9 13 5 7 1011.5 1011.4 -
25/10:30am - - - - - SE 9 13 5 7 1011.6 1011.5 -
25/10:00am - - - - - ESE 6 7 3 4 1011.7 1011.6 -
25/09:30am - - - - - ENE 6 11 3 6 1011.5 1011.4 -
25/09:00am - - - - - ENE 7 13 4 7 1011.1 1011.0 -
25/08:30am - - - - - ENE 6 11 3 6 1010.8 1010.7 -
25/08:00am - - - - - NE 4 11 2 6 1010.5 1010.4 -
25/07:30am - - - - - ENE 6 9 3 5 1010.1 1010.0 -
25/07:00am - - - - - ENE 6 7 3 4 1010.0 1009.9 -
25/06:30am - - - - - NE 6 9 3 5 1009.8 1009.7 -
25/06:00am - - - - - NE 2 7 1 4 1009.4 1009.3 -
25/05:30am - - - - - CALM 0 2 0 1 1009.2 1009.1 -
25/05:00am - - - - - NE 4 7 2 4 1009.3 1009.2 -
25/04:30am - - - - - NE 4 7 2 4 1009.2 1009.1 -
25/04:00am - - - - - NE 4 6 2 3 1009.2 1009.1 -
25/03:30am - - - - - NE 4 7 2 4 1009.3 1009.2 -
25/03:00am - - - - - NE 2 4 1 2 1009.6 1009.5 -
25/02:30am - - - - - CALM 0 4 0 2 1009.7 1009.6 -
25/02:00am - - - - - WNW 4 6 2 3 1010.0 1009.9 -
25/01:30am - - - - - NNW 2 4 1 2 1010.4 1010.3 -
25/01:00am - - - - - NW 4 7 2 4 1010.7 1010.6 -
25/12:30am - - - - - W 9 13 5 7 1010.8 1010.7 -
25/12:00am - - - - - W 7 11 4 6 1011.1 1011.0 -
 
Date/Time
CST
Temp
°C
App
Temp
°C
Dew
Point
°C
Rel
Hum
%
Delta-T
°C
Wind Press
QNH
hPa
Press
MSL
hPa
Rain since
9am
mm
Dir  Spd
km/h
Gust
km/h
Spd
kts
Gust
kts
24/11:30pm - - - - - WNW 6 9 3 5 1011.3 1011.2 -
24/11:00pm - - - - - NW 6 9 3 5 1011.4 1011.3 -
24/10:30pm - - - - - WNW 6 9 3 5 1011.5 1011.4 -
24/10:00pm - - - - - NNW 4 7 2 4 1011.7 1011.6 -
24/09:30pm - - - - - NNW 7 13 4 7 1011.6 1011.5 -
24/09:00pm - - - - - N 7 11 4 6 1011.4 1011.3 -
24/08:30pm - - - - - NNW 9 13 5 7 1011.1 1011.0 -
24/08:00pm - - - - - NW 7 13 4 7 1010.5 1010.4 -
24/07:30pm - - - - - WNW 11 17 6 9 1009.9 1009.8 -
24/07:00pm - - - - - WNW 13 19 7 10 1009.5 1009.4 -
24/06:30pm - - - - - WNW 13 20 7 11 1009.1 1009.0 -
24/06:00pm - - - - - NNW 11 20 6 11 1008.7 1008.6 -
24/05:30pm - - - - - NW 17 22 9 12 1008.3 1008.2 -
24/05:00pm - - - - - WNW 11 17 6 9 1008.1 1008.0 -
24/04:30pm - - - - - WNW 7 17 4 9 1008.0 1007.9 -
24/04:00pm - - - - - E 15 22 8 12 1007.9 1007.8 -
24/03:30pm - - - - - ESE 19 24 10 13 1008.0 1007.9 -
24/03:00pm - - - - - E 24 30 13 16 1008.3 1008.2 -
24/02:30pm - - - - - ESE 24 32 13 17 1008.6 1008.5 -
24/02:00pm - - - - - ESE 19 20 10 11 1008.9 1008.8 -
24/01:30pm - - - - - ESE 6 11 3 6 1009.1 1009.0 -
24/01:00pm - - - - - SW 6 9 3 5 1009.6 1009.5 -

Latest Capital City Observations: Canberra | Sydney | Melbourne | Brisbane | Adelaide | Perth | Hobart | Darwin

Other Formats:

Comma delimited format used in spreadsheet applications
http://www.bom.gov.au/fwo/IDD60901/IDD60901.95122.axf

JavaScript Object Notation format (JSON) in row-major order
http://www.bom.gov.au/fwo/IDD60901/IDD60901.95122.json